sensor_id;sensor_type;location;lat;lon;timestamp;temperature;humidity
16313;DHT22;8265;52.622;13.296;2024-03-08T00:05:13;-1.70;82.10
16313;DHT22;8265;52.622;13.296;2024-03-08T00:10:34;-1.60;82.00
16313;DHT22;8265;52.622;13.296;2024-03-08T00:15:55;-1.70;82.50
16313;DHT22;8265;52.622;13.296;2024-03-08T00:21:16;-1.90;82.90
16313;DHT22;8265;52.622;13.296;2024-03-08T00:26:37;-1.80;82.60
16313;DHT22;8265;52.622;13.296;2024-03-08T00:31:58;-1.80;82.40
16313;DHT22;8265;52.622;13.296;2024-03-08T00:37:19;-1.90;83.30
16313;DHT22;8265;52.622;13.296;2024-03-08T00:42:40;-1.80;82.80
16313;DHT22;8265;52.622;13.296;2024-03-08T00:48:01;-1.90;82.50
16313;DHT22;8265;52.622;13.296;2024-03-08T00:53:22;-2.00;83.00
16313;DHT22;8265;52.622;13.296;2024-03-08T00:58:43;-2.10;83.10
16313;DHT22;8265;52.622;13.296;2024-03-08T01:04:04;-2.30;82.90
16313;DHT22;8265;52.622;13.296;2024-03-08T01:09:25;-2.40;83.30
16313;DHT22;8265;52.622;13.296;2024-03-08T01:14:46;-2.40;83.20
16313;DHT22;8265;52.622;13.296;2024-03-08T01:20:07;-2.40;83.30
16313;DHT22;8265;52.622;13.296;2024-03-08T01:25:28;-2.40;83.60
16313;DHT22;8265;52.622;13.296;2024-03-08T01:30:49;-2.50;84.00
16313;DHT22;8265;52.622;13.296;2024-03-08T01:36:10;-2.50;83.60
16313;DHT22;8265;52.622;13.296;2024-03-08T01:41:31;-2.50;84.50
16313;DHT22;8265;52.622;13.296;2024-03-08T01:46:52;-2.30;84.70
16313;DHT22;8265;52.622;13.296;2024-03-08T01:52:13;-2.20;83.80
16313;DHT22;8265;52.622;13.296;2024-03-08T01:57:34;-2.40;84.40
16313;DHT22;8265;52.622;13.296;2024-03-08T02:02:55;-2.20;84.00
16313;DHT22;8265;52.622;13.296;2024-03-08T02:08:16;-2.10;83.50
16313;DHT22;8265;52.622;13.296;2024-03-08T02:13:37;-2.10;83.10
16313;DHT22;8265;52.622;13.296;2024-03-08T02:18:58;-2.00;82.70
16313;DHT22;8265;52.622;13.296;2024-03-08T02:24:19;-2.00;82.50
16313;DHT22;8265;52.622;13.296;2024-03-08T02:29:40;-2.10;82.90
16313;DHT22;8265;52.622;13.296;2024-03-08T02:35:01;-2.20;83.60
16313;DHT22;8265;52.622;13.296;2024-03-08T02:40:22;-2.20;83.80
16313;DHT22;8265;52.622;13.296;2024-03-08T02:45:43;-2.40;84.50
16313;DHT22;8265;52.622;13.296;2024-03-08T02:51:04;-2.30;84.20
16313;DHT22;8265;52.622;13.296;2024-03-08T02:56:25;-2.20;83.20
16313;DHT22;8265;52.622;13.296;2024-03-08T03:01:46;-2.10;82.80
16313;DHT22;8265;52.622;13.296;2024-03-08T03:07:07;-2.10;83.00
16313;DHT22;8265;52.622;13.296;2024-03-08T03:12:28;-2.10;83.10
16313;DHT22;8265;52.622;13.296;2024-03-08T03:17:49;-2.20;83.50
16313;DHT22;8265;52.622;13.296;2024-03-08T03:23:10;-2.40;84.20
16313;DHT22;8265;52.622;13.296;2024-03-08T03:28:31;-2.50;84.80
16313;DHT22;8265;52.622;13.296;2024-03-08T03:33:52;-2.60;85.80
16313;DHT22;8265;52.622;13.296;2024-03-08T03:39:13;-2.60;84.90
16313;DHT22;8265;52.622;13.296;2024-03-08T03:44:34;-2.70;85.20
16313;DHT22;8265;52.622;13.296;2024-03-08T03:49:55;-2.50;84.80
16313;DHT22;8265;52.622;13.296;2024-03-08T03:55:16;-2.40;84.20
16313;DHT22;8265;52.622;13.296;2024-03-08T04:00:37;-2.30;84.10
16313;DHT22;8265;52.622;13.296;2024-03-08T04:05:58;-2.40;84.40
16313;DHT22;8265;52.622;13.296;2024-03-08T04:11:19;-2.40;84.80
16313;DHT22;8265;52.622;13.296;2024-03-08T04:16:40;-2.50;84.80
16313;DHT22;8265;52.622;13.296;2024-03-08T04:22:01;-2.40;84.80
16313;DHT22;8265;52.622;13.296;2024-03-08T04:27:22;-2.40;84.50
16313;DHT22;8265;52.622;13.296;2024-03-08T04:32:43;-2.50;84.90
16313;DHT22;8265;52.622;13.296;2024-03-08T04:38:04;-2.50;84.80
16313;DHT22;8265;52.622;13.296;2024-03-08T04:43:25;-2.60;85.00
16313;DHT22;8265;52.622;13.296;2024-03-08T04:48:46;-2.70;85.70
16313;DHT22;8265;52.622;13.296;2024-03-08T04:54:07;-2.80;86.30
16313;DHT22;8265;52.622;13.296;2024-03-08T04:59:28;-2.90;86.70
16313;DHT22;8265;52.622;13.296;2024-03-08T05:04:49;-2.80;86.40
16313;DHT22;8265;52.622;13.296;2024-03-08T05:10:10;-2.80;86.30
16313;DHT22;8265;52.622;13.296;2024-03-08T05:15:31;-2.70;85.60
16313;DHT22;8265;52.622;13.296;2024-03-08T05:20:52;-2.70;85.60
16313;DHT22;8265;52.622;13.296;2024-03-08T05:26:13;-3.00;86.20
16313;DHT22;8265;52.622;13.296;2024-03-08T05:31:46;-3.20;87.20
16313;DHT22;8265;52.622;13.296;2024-03-08T05:36:55;-3.10;87.30
16313;DHT22;8265;52.622;13.296;2024-03-08T05:42:16;-3.10;87.50
16313;DHT22;8265;52.622;13.296;2024-03-08T05:47:38;-3.20;87.90
16313;DHT22;8265;52.622;13.296;2024-03-08T05:52:58;-3.20;87.80
16313;DHT22;8265;52.622;13.296;2024-03-08T05:58:19;-3.10;87.70
16313;DHT22;8265;52.622;13.296;2024-03-08T06:03:40;-2.90;87.20
16313;DHT22;8265;52.622;13.296;2024-03-08T06:09:01;-2.80;86.70
16313;DHT22;8265;52.622;13.296;2024-03-08T06:14:22;-2.90;86.90
16313;DHT22;8265;52.622;13.296;2024-03-08T06:19:43;-2.90;87.70
16313;DHT22;8265;52.622;13.296;2024-03-08T06:25:04;-2.90;87.80
16313;DHT22;8265;52.622;13.296;2024-03-08T06:30:25;-2.80;88.00
16313;DHT22;8265;52.622;13.296;2024-03-08T06:35:46;-2.60;88.00
16313;DHT22;8265;52.622;13.296;2024-03-08T06:41:07;-0.80;88.20
16313;DHT22;8265;52.622;13.296;2024-03-08T06:46:28;0.00;81.70
16313;DHT22;8265;52.622;13.296;2024-03-08T06:51:49;0.30;78.60
16313;DHT22;8265;52.622;13.296;2024-03-08T06:57:10;0.50;78.00
16313;DHT22;8265;52.622;13.296;2024-03-08T07:02:31;1.00;75.90
16313;DHT22;8265;52.622;13.296;2024-03-08T07:07:52;0.80;75.50
16313;DHT22;8265;52.622;13.296;2024-03-08T07:13:13;0.70;76.60
16313;DHT22;8265;52.622;13.296;2024-03-08T07:18:35;0.60;75.90
16313;DHT22;8265;52.622;13.296;2024-03-08T07:23:55;0.70;76.40
16313;DHT22;8265;52.622;13.296;2024-03-08T07:29:16;1.00;76.50
16313;DHT22;8265;52.622;13.296;2024-03-08T07:34:37;1.80;73.40
16313;DHT22;8265;52.622;13.296;2024-03-08T07:39:58;1.10;75.00
16313;DHT22;8265;52.622;13.296;2024-03-08T07:45:19;1.40;74.90
16313;DHT22;8265;52.622;13.296;2024-03-08T07:50:40;1.50;74.60
16313;DHT22;8265;52.622;13.296;2024-03-08T07:56:01;1.60;73.40
16313;DHT22;8265;52.622;13.296;2024-03-08T08:01:22;2.10;73.90
16313;DHT22;8265;52.622;13.296;2024-03-08T08:06:43;2.30;73.20
16313;DHT22;8265;52.622;13.296;2024-03-08T08:12:04;2.00;72.30
16313;DHT22;8265;52.622;13.296;2024-03-08T08:17:25;1.90;73.80
16313;DHT22;8265;52.622;13.296;2024-03-08T08:22:46;2.40;73.00
16313;DHT22;8265;52.622;13.296;2024-03-08T08:28:07;2.50;72.20
16313;DHT22;8265;52.622;13.296;2024-03-08T08:33:28;2.70;71.50
16313;DHT22;8265;52.622;13.296;2024-03-08T08:38:49;2.80;70.30
16313;DHT22;8265;52.622;13.296;2024-03-08T08:44:10;3.30;68.90
16313;DHT22;8265;52.622;13.296;2024-03-08T08:49:31;3.40;69.40
16313;DHT22;8265;52.622;13.296;2024-03-08T08:54:52;3.50;68.00
16313;DHT22;8265;52.622;13.296;2024-03-08T09:00:13;3.70;68.00
16313;DHT22;8265;52.622;13.296;2024-03-08T09:05:34;4.00;65.90
16313;DHT22;8265;52.622;13.296;2024-03-08T09:10:55;4.20;64.40
16313;DHT22;8265;52.622;13.296;2024-03-08T09:16:16;4.30;65.00
16313;DHT22;8265;52.622;13.296;2024-03-08T09:21:37;4.50;63.20
16313;DHT22;8265;52.622;13.296;2024-03-08T09:26:58;4.60;62.80
16313;DHT22;8265;52.622;13.296;2024-03-08T09:32:21;4.70;61.30
16313;DHT22;8265;52.622;13.296;2024-03-08T09:37:40;4.90;60.60
16313;DHT22;8265;52.622;13.296;2024-03-08T09:43:01;5.00;60.20
16313;DHT22;8265;52.622;13.296;2024-03-08T09:48:22;5.00;60.00
16313;DHT22;8265;52.622;13.296;2024-03-08T09:53:43;5.10;58.80
16313;DHT22;8265;52.622;13.296;2024-03-08T09:59:04;5.40;59.30
16313;DHT22;8265;52.622;13.296;2024-03-08T10:04:25;5.50;58.90
16313;DHT22;8265;52.622;13.296;2024-03-08T10:09:46;5.50;57.60
16313;DHT22;8265;52.622;13.296;2024-03-08T10:15:07;5.50;58.20
16313;DHT22;8265;52.622;13.296;2024-03-08T10:20:28;5.60;57.80
16313;DHT22;8265;52.622;13.296;2024-03-08T10:25:49;5.60;57.10
16313;DHT22;8265;52.622;13.296;2024-03-08T10:31:10;5.70;56.40
16313;DHT22;8265;52.622;13.296;2024-03-08T10:36:31;6.00;56.00
16313;DHT22;8265;52.622;13.296;2024-03-08T10:41:58;6.00;56.80
16313;DHT22;8265;52.622;13.296;2024-03-08T10:47:21;6.10;56.20
16313;DHT22;8265;52.622;13.296;2024-03-08T10:52:34;6.40;54.60
16313;DHT22;8265;52.622;13.296;2024-03-08T10:57:55;6.40;54.80
16313;DHT22;8265;52.622;13.296;2024-03-08T11:08:37;6.60;54.80
16313;DHT22;8265;52.622;13.296;2024-03-08T11:13:58;6.60;53.90
16313;DHT22;8265;52.622;13.296;2024-03-08T11:24:40;6.90;53.80
16313;DHT22;8265;52.622;13.296;2024-03-08T11:30:05;7.00;53.70
16313;DHT22;8265;52.622;13.296;2024-03-08T11:35:22;7.00;54.70
16313;DHT22;8265;52.622;13.296;2024-03-08T11:40:42;7.10;53.90
16313;DHT22;8265;52.622;13.296;2024-03-08T11:46:12;7.30;52.30
16313;DHT22;8265;52.622;13.296;2024-03-08T11:51:24;7.30;52.10
16313;DHT22;8265;52.622;13.296;2024-03-08T11:56:45;7.40;51.90
16313;DHT22;8265;52.622;13.296;2024-03-08T12:02:07;7.40;52.10
16313;DHT22;8265;52.622;13.296;2024-03-08T12:07:28;7.40;51.60
16313;DHT22;8265;52.622;13.296;2024-03-08T12:12:49;7.90;51.20
16313;DHT22;8265;52.622;13.296;2024-03-08T12:18:09;7.90;50.50
16313;DHT22;8265;52.622;13.296;2024-03-08T12:23:30;7.80;50.80
16313;DHT22;8265;52.622;13.296;2024-03-08T12:28:52;8.00;50.30
16313;DHT22;8265;52.622;13.296;2024-03-08T12:34:13;8.10;50.00
16313;DHT22;8265;52.622;13.296;2024-03-08T12:39:34;8.00;49.20
16313;DHT22;8265;52.622;13.296;2024-03-08T12:44:54;8.10;48.10
16313;DHT22;8265;52.622;13.296;2024-03-08T12:50:15;8.20;48.10
16313;DHT22;8265;52.622;13.296;2024-03-08T12:55:36;8.30;48.90
16313;DHT22;8265;52.622;13.296;2024-03-08T13:00:57;8.10;49.60
16313;DHT22;8265;52.622;13.296;2024-03-08T13:06:21;8.30;47.90
16313;DHT22;8265;52.622;13.296;2024-03-08T13:11:39;8.30;47.30
16313;DHT22;8265;52.622;13.296;2024-03-08T13:17:00;8.60;47.60
16313;DHT22;8265;52.622;13.296;2024-03-08T13:22:21;8.50;45.50
16313;DHT22;8265;52.622;13.296;2024-03-08T13:27:42;8.50;47.20
16313;DHT22;8265;52.622;13.296;2024-03-08T13:33:03;8.50;47.90
16313;DHT22;8265;52.622;13.296;2024-03-08T13:38:24;8.50;47.80
16313;DHT22;8265;52.622;13.296;2024-03-08T13:43:46;8.50;47.80
16313;DHT22;8265;52.622;13.296;2024-03-08T13:49:06;8.40;48.20
16313;DHT22;8265;52.622;13.296;2024-03-08T13:54:27;8.40;48.20
16313;DHT22;8265;52.622;13.296;2024-03-08T13:59:48;8.50;48.30
16313;DHT22;8265;52.622;13.296;2024-03-08T14:05:09;8.60;47.90
16313;DHT22;8265;52.622;13.296;2024-03-08T14:10:30;8.50;49.50
16313;DHT22;8265;52.622;13.296;2024-03-08T14:15:51;8.60;48.50
16313;DHT22;8265;52.622;13.296;2024-03-08T14:21:12;8.60;49.20
16313;DHT22;8265;52.622;13.296;2024-03-08T14:26:33;8.60;49.10
16313;DHT22;8265;52.622;13.296;2024-03-08T14:31:55;8.80;49.10
16313;DHT22;8265;52.622;13.296;2024-03-08T14:37:15;8.60;49.70
16313;DHT22;8265;52.622;13.296;2024-03-08T14:42:36;8.80;49.10
16313;DHT22;8265;52.622;13.296;2024-03-08T14:47:57;8.60;49.00
16313;DHT22;8265;52.622;13.296;2024-03-08T14:53:18;8.70;49.50
16313;DHT22;8265;52.622;13.296;2024-03-08T14:58:39;8.70;48.30
16313;DHT22;8265;52.622;13.296;2024-03-08T15:04:00;8.60;47.70
16313;DHT22;8265;52.622;13.296;2024-03-08T15:09:21;8.60;48.70
16313;DHT22;8265;52.622;13.296;2024-03-08T15:14:42;8.40;48.20
16313;DHT22;8265;52.622;13.296;2024-03-08T15:20:04;8.40;49.00
16313;DHT22;8265;52.622;13.296;2024-03-08T15:25:24;8.40;49.10
16313;DHT22;8265;52.622;13.296;2024-03-08T15:30:48;8.40;49.20
16313;DHT22;8265;52.622;13.296;2024-03-08T15:36:06;8.30;49.30
16313;DHT22;8265;52.622;13.296;2024-03-08T15:41:28;8.30;49.40
16313;DHT22;8265;52.622;13.296;2024-03-08T15:46:48;8.20;50.70
16313;DHT22;8265;52.622;13.296;2024-03-08T15:52:09;8.00;50.10
16313;DHT22;8265;52.622;13.296;2024-03-08T15:57:30;7.80;49.40
16313;DHT22;8265;52.622;13.296;2024-03-08T16:02:51;7.70;49.60
16313;DHT22;8265;52.622;13.296;2024-03-08T16:08:15;7.60;50.20
16313;DHT22;8265;52.622;13.296;2024-03-08T16:13:33;7.60;49.60
16313;DHT22;8265;52.622;13.296;2024-03-08T16:18:54;7.50;50.30
16313;DHT22;8265;52.622;13.296;2024-03-08T16:24:15;7.60;50.30
16313;DHT22;8265;52.622;13.296;2024-03-08T16:29:36;7.40;50.60
16313;DHT22;8265;52.622;13.296;2024-03-08T16:34:57;7.00;51.30
16313;DHT22;8265;52.622;13.296;2024-03-08T16:40:18;6.70;52.70
16313;DHT22;8265;52.622;13.296;2024-03-08T16:45:39;6.60;51.90
16313;DHT22;8265;52.622;13.296;2024-03-08T16:51:00;6.40;52.40
16313;DHT22;8265;52.622;13.296;2024-03-08T16:56:21;6.20;53.20
16313;DHT22;8265;52.622;13.296;2024-03-08T17:01:42;6.00;53.90
16313;DHT22;8265;52.622;13.296;2024-03-08T17:07:03;5.80;54.90
16313;DHT22;8265;52.622;13.296;2024-03-08T17:12:27;5.60;54.50
16313;DHT22;8265;52.622;13.296;2024-03-08T17:17:45;5.40;54.20
16313;DHT22;8265;52.622;13.296;2024-03-08T17:23:06;5.30;56.00
16313;DHT22;8265;52.622;13.296;2024-03-08T17:28:27;5.30;55.80
16313;DHT22;8265;52.622;13.296;2024-03-08T17:33:48;5.30;55.10
16313;DHT22;8265;52.622;13.296;2024-03-08T17:39:09;5.00;56.20
16313;DHT22;8265;52.622;13.296;2024-03-08T17:44:30;4.70;55.90
16313;DHT22;8265;52.622;13.296;2024-03-08T17:49:51;4.70;57.20
16313;DHT22;8265;52.622;13.296;2024-03-08T17:55:12;4.70;56.20
16313;DHT22;8265;52.622;13.296;2024-03-08T18:00:33;4.70;56.00
16313;DHT22;8265;52.622;13.296;2024-03-08T18:05:54;4.60;56.90
16313;DHT22;8265;52.622;13.296;2024-03-08T18:11:15;4.70;56.00
16313;DHT22;8265;52.622;13.296;2024-03-08T18:16:36;4.50;57.70
16313;DHT22;8265;52.622;13.296;2024-03-08T18:21:57;4.50;57.50
16313;DHT22;8265;52.622;13.296;2024-03-08T18:27:18;4.40;58.00
16313;DHT22;8265;52.622;13.296;2024-03-08T18:32:39;4.40;57.80
16313;DHT22;8265;52.622;13.296;2024-03-08T18:38:00;4.00;58.40
16313;DHT22;8265;52.622;13.296;2024-03-08T18:43:21;4.00;58.30
16313;DHT22;8265;52.622;13.296;2024-03-08T18:48:42;4.30;58.40
16313;DHT22;8265;52.622;13.296;2024-03-08T18:54:03;3.90;58.10
16313;DHT22;8265;52.622;13.296;2024-03-08T18:59:24;3.70;59.30
16313;DHT22;8265;52.622;13.296;2024-03-08T19:04:45;3.60;58.80
16313;DHT22;8265;52.622;13.296;2024-03-08T19:10:06;3.50;59.10
16313;DHT22;8265;52.622;13.296;2024-03-08T19:15:27;3.50;58.30
16313;DHT22;8265;52.622;13.296;2024-03-08T19:20:48;3.50;59.00
16313;DHT22;8265;52.622;13.296;2024-03-08T19:26:09;3.40;59.30
16313;DHT22;8265;52.622;13.296;2024-03-08T19:31:30;3.50;59.00
16313;DHT22;8265;52.622;13.296;2024-03-08T19:36:54;3.50;59.00
16313;DHT22;8265;52.622;13.296;2024-03-08T19:42:12;3.50;60.00
16313;DHT22;8265;52.622;13.296;2024-03-08T19:47:33;3.30;59.50
16313;DHT22;8265;52.622;13.296;2024-03-08T19:52:55;3.30;59.80
16313;DHT22;8265;52.622;13.296;2024-03-08T19:58:15;3.30;60.50
16313;DHT22;8265;52.622;13.296;2024-03-08T20:03:36;3.20;60.70
16313;DHT22;8265;52.622;13.296;2024-03-08T20:08:57;3.10;60.60
16313;DHT22;8265;52.622;13.296;2024-03-08T20:14:18;3.10;61.20
16313;DHT22;8265;52.622;13.296;2024-03-08T20:19:39;3.10;62.00
16313;DHT22;8265;52.622;13.296;2024-03-08T20:25:00;3.00;62.00
16313;DHT22;8265;52.622;13.296;2024-03-08T20:30:24;3.10;62.90
16313;DHT22;8265;52.622;13.296;2024-03-08T20:35:42;2.90;62.80
16313;DHT22;8265;52.622;13.296;2024-03-08T20:41:03;2.80;63.20
16313;DHT22;8265;52.622;13.296;2024-03-08T20:46:24;2.90;63.30
16313;DHT22;8265;52.622;13.296;2024-03-08T20:51:45;3.00;63.40
16313;DHT22;8265;52.622;13.296;2024-03-08T20:57:06;2.80;63.80
16313;DHT22;8265;52.622;13.296;2024-03-08T21:02:27;2.70;64.70
16313;DHT22;8265;52.622;13.296;2024-03-08T21:07:48;2.80;63.70
16313;DHT22;8265;52.622;13.296;2024-03-08T21:13:09;2.70;64.20
16313;DHT22;8265;52.622;13.296;2024-03-08T21:18:31;3.00;64.50
16313;DHT22;8265;52.622;13.296;2024-03-08T21:23:51;2.70;64.80
16313;DHT22;8265;52.622;13.296;2024-03-08T21:29:12;2.80;64.30
16313;DHT22;8265;52.622;13.296;2024-03-08T21:34:33;2.70;65.30
16313;DHT22;8265;52.622;13.296;2024-03-08T21:39:54;2.60;66.40
16313;DHT22;8265;52.622;13.296;2024-03-08T21:45:15;2.70;66.00
16313;DHT22;8265;52.622;13.296;2024-03-08T21:50:36;2.40;65.80
16313;DHT22;8265;52.622;13.296;2024-03-08T21:55:57;2.50;66.20
16313;DHT22;8265;52.622;13.296;2024-03-08T22:01:18;2.40;66.80
16313;DHT22;8265;52.622;13.296;2024-03-08T22:06:39;2.60;66.60
16313;DHT22;8265;52.622;13.296;2024-03-08T22:12:00;2.40;66.70
16313;DHT22;8265;52.622;13.296;2024-03-08T22:17:21;2.50;66.50
16313;DHT22;8265;52.622;13.296;2024-03-08T22:22:42;2.50;66.70
16313;DHT22;8265;52.622;13.296;2024-03-08T22:28:03;2.50;66.90
16313;DHT22;8265;52.622;13.296;2024-03-08T22:33:24;2.30;67.00
16313;DHT22;8265;52.622;13.296;2024-03-08T22:38:45;2.30;68.30
16313;DHT22;8265;52.622;13.296;2024-03-08T22:44:06;2.20;69.00
16313;DHT22;8265;52.622;13.296;2024-03-08T22:49:27;2.10;69.40
16313;DHT22;8265;52.622;13.296;2024-03-08T22:54:48;2.10;69.00
16313;DHT22;8265;52.622;13.296;2024-03-08T23:00:09;2.50;68.00
16313;DHT22;8265;52.622;13.296;2024-03-08T23:05:30;2.50;67.80
16313;DHT22;8265;52.622;13.296;2024-03-08T23:10:51;2.20;68.60
16313;DHT22;8265;52.622;13.296;2024-03-08T23:16:12;2.30;68.50
16313;DHT22;8265;52.622;13.296;2024-03-08T23:21:33;2.10;69.70
16313;DHT22;8265;52.622;13.296;2024-03-08T23:26:54;2.10;69.10
16313;DHT22;8265;52.622;13.296;2024-03-08T23:32:15;1.90;70.10
16313;DHT22;8265;52.622;13.296;2024-03-08T23:37:36;2.00;69.80
16313;DHT22;8265;52.622;13.296;2024-03-08T23:42:57;1.90;70.10
16313;DHT22;8265;52.622;13.296;2024-03-08T23:48:18;1.60;71.10
16313;DHT22;8265;52.622;13.296;2024-03-08T23:53:39;1.80;70.90
16313;DHT22;8265;52.622;13.296;2024-03-08T23:59:00;1.80;70.50
